Time;durP1;ratioP1;P1;durP2;ratioP2;P2;SDS_P1;SDS_P2;PMS_P1;PMS_P2;Temp;Humidity;BMP_temperature;BMP_pressure;BME280_temperature;BME280_humidity;BME280_pressure;Samples;Min_cycle;Max_cycle;Signal;HPM_P1;HPM_P2
2021/05/08 00:00:37;;;;;;;14.23;8.25;;;;;;;18.72;62.90;99212.03;5059287;28;20238;-68
2021/05/08 00:03:03;;;;;;;12.85;7.18;;;;;;;18.71;62.66;99213.09;5060332;28;20452;-67
2021/05/08 00:05:29;;;;;;;16.08;8.05;;;;;;;18.64;63.09;99221.22;5058895;28;20064;-67
2021/05/08 00:07:55;;;;;;;13.18;7.70;;;;;;;18.64;62.91;99215.88;5060349;28;20036;-67
2021/05/08 00:10:21;;;;;;;16.48;7.80;;;;;;;18.71;62.67;99229.19;5062846;28;20025;-74
2021/05/08 00:12:47;;;;;;;14.32;7.30;;;;;;;18.71;62.33;99231.88;5076973;28;20025;-67
2021/05/08 00:15:14;;;;;;;15.90;7.20;;;;;;;18.68;62.10;99225.09;5059000;28;20021;-74
2021/05/08 00:17:40;;;;;;;15.07;7.13;;;;;;;18.54;62.81;99220.91;5059675;28;20100;-74
2021/05/08 00:20:10;;;;;;;15.55;7.28;;;;;;;18.60;62.29;99222.69;5058557;28;20118;-67
2021/05/08 00:22:37;;;;;;;14.80;7.30;;;;;;;18.54;62.80;99228.97;5058878;28;20055;-74
2021/05/08 00:25:04;;;;;;;15.63;7.18;;;;;;;18.45;62.90;99209.69;5059371;28;20100;-74
2021/05/08 00:27:29;;;;;;;22.92;8.77;;;;;;;18.23;63.90;99221.09;5058732;28;20064;-74
2021/05/08 00:29:54;;;;;;;12.38;7.85;;;;;;;18.21;63.79;99228.53;5062295;28;20039;-74
2021/05/08 00:32:20;;;;;;;16.98;7.82;;;;;;;18.25;63.57;99227.88;5061679;28;20040;-74
2021/05/08 00:34:45;;;;;;;12.90;7.28;;;;;;;18.38;62.91;99230.41;5061876;28;20043;-74
2021/05/08 00:37:11;;;;;;;13.10;7.28;;;;;;;18.39;62.36;99212.44;5059218;28;20068;-73
2021/05/08 00:39:36;;;;;;;14.10;7.85;;;;;;;18.45;62.57;99212.38;5059365;28;20062;-74
2021/05/08 00:42:02;;;;;;;13.63;7.88;;;;;;;18.44;62.45;99209.91;5057731;28;20078;-68
2021/05/08 00:44:27;;;;;;;12.63;7.72;;;;;;;18.39;62.70;99207.09;5059418;28;20052;-73
2021/05/08 00:46:54;;;;;;;15.32;7.53;;;;;;;18.47;62.57;99220.19;5058456;28;20041;-67
2021/05/08 00:49:21;;;;;;;16.13;7.55;;;;;;;18.44;62.61;99221.47;5058010;28;20247;-74
2021/05/08 00:51:47;;;;;;;15.15;7.85;;;;;;;18.51;62.33;99227.56;5070666;28;20029;-74
2021/05/08 00:54:12;;;;;;;15.68;7.63;;;;;;;18.56;62.11;99223.38;5057661;28;20033;-67
2021/05/08 00:56:39;;;;;;;15.27;7.70;;;;;;;18.58;61.99;99229.31;5058614;28;20091;-74
2021/05/08 00:59:05;;;;;;;15.68;7.57;;;;;;;18.43;62.47;99235.09;5058487;28;20032;-67
2021/05/08 01:01:30;;;;;;;17.55;8.02;;;;;;;18.42;62.58;99230.75;5058037;28;20029;-67
2021/05/08 01:03:56;;;;;;;13.80;7.82;;;;;;;18.35;62.87;99230.84;5058967;28;20078;-75
2021/05/08 01:06:21;;;;;;;19.48;7.75;;;;;;;18.35;62.79;99240.75;5056151;28;20400;-67
2021/05/08 01:08:47;;;;;;;16.65;8.55;;;;;;;18.40;62.30;99239.03;5058220;28;20043;-74
2021/05/08 01:11:12;;;;;;;15.95;8.27;;;;;;;18.31;62.80;99235.03;5058585;28;20040;-74
2021/05/08 01:13:39;;;;;;;16.90;9.05;;;;;;;18.33;62.46;99222.22;5058051;28;20043;-74
2021/05/08 01:16:04;;;;;;;14.68;7.70;;;;;;;18.29;63.05;99223.72;5061916;28;20060;-67
2021/05/08 01:18:31;;;;;;;15.63;8.13;;;;;;;18.19;63.22;99224.22;5060109;28;20323;-74
2021/05/08 01:20:57;;;;;;;12.70;7.75;;;;;;;18.20;62.63;99211.66;5061006;28;20179;-74
2021/05/08 01:23:23;;;;;;;12.77;7.78;;;;;;;18.14;63.13;99210.69;5062595;28;20307;-67
2021/05/08 01:25:49;;;;;;;13.65;7.40;;;;;;;18.07;62.89;99215.31;5062186;28;20098;-74
2021/05/08 01:28:14;;;;;;;12.25;7.05;;;;;;;18.07;63.40;99214.47;5060931;28;20029;-67
2021/05/08 01:30:40;;;;;;;8.95;5.93;;;;;;;17.92;63.73;99203.31;5061915;28;20070;-74
2021/05/08 01:33:06;;;;;;;14.85;6.63;;;;;;;17.84;63.98;99207.94;5060961;28;20025;-74
2021/05/08 01:35:33;;;;;;;11.45;6.70;;;;;;;17.92;63.86;99206.81;5058357;28;20099;-67
2021/05/08 01:38:00;;;;;;;10.98;5.65;;;;;;;18.00;62.62;99205.69;5060152;28;20037;-74
2021/05/08 01:40:39;;;;;;;7.43;5.45;;;;;;;17.91;62.74;99231.16;5055718;28;20029;-67
2021/05/08 01:43:05;;;;;;;9.80;5.40;;;;;;;17.99;62.57;99237.03;5041341;28;20060;-74
2021/05/08 01:45:31;;;;;;;10.65;6.05;;;;;;;17.80;61.81;99211.28;5054543;28;20024;-67
2021/05/08 01:47:59;;;;;;;14.85;6.20;;;;;;;17.72;62.85;99257.06;5057268;28;20247;-67
2021/05/08 01:50:26;;;;;;;17.70;7.40;;;;;;;17.53;63.50;99259.66;5057376;28;20031;-73
2021/05/08 01:52:51;;;;;;;14.52;7.30;;;;;;;17.12;65.44;99265.50;5058416;28;20032;-67
2021/05/08 01:55:19;;;;;;;12.82;6.93;;;;;;;17.14;65.40;99262.63;5056846;28;20051;-67
2021/05/08 01:57:47;;;;;;;11.10;6.25;;;;;;;17.16;64.77;99276.59;5057632;28;20387;-74
2021/05/08 02:00:19;;;;;;;19.98;6.95;;;;;;;16.96;65.65;99274.06;5073010;28;20088;-67
2021/05/08 02:02:50;;;;;;;11.40;6.25;;;;;;;16.74;66.60;99272.72;5065253;28;20047;-74
2021/05/08 02:05:16;;;;;;;13.65;6.28;;;;;;;16.34;68.37;99272.00;5063500;28;20263;-75
2021/05/08 02:07:41;;;;;;;11.15;6.13;;;;;;;16.34;67.84;99256.81;5062844;28;20234;-67
2021/05/08 02:10:09;;;;;;;14.02;6.47;;;;;;;16.25;68.27;99271.41;5065812;28;20037;-67
2021/05/08 02:12:39;;;;;;;13.02;6.10;;;;;;;16.29;68.26;99267.31;5063183;28;20082;-75
2021/05/08 02:15:13;;;;;;;14.38;6.38;;;;;;;16.17;68.96;99269.78;5060340;28;20088;-74
2021/05/08 02:17:38;;;;;;;;;;;;;;;16.40;68.25;99273.84;5061547;28;20064;-74
2021/05/08 02:20:15;;;;;;;9.07;6.18;;;;;;;16.42;67.70;99277.94;5060993;28;19920;-67
2021/05/08 02:22:42;;;;;;;14.75;6.03;;;;;;;16.40;67.72;99282.69;5061041;28;20029;-74
2021/05/08 02:25:10;;;;;;;11.20;5.82;;;;;;;16.37;67.88;99279.59;5063183;28;20048;-74
2021/05/08 02:27:36;;;;;;;11.38;6.20;;;;;;;16.64;66.55;99277.66;5061930;28;20084;-74
2021/05/08 02:30:05;;;;;;;8.93;5.93;;;;;;;16.63;66.30;99274.16;5060775;28;20029;-74
2021/05/08 02:32:31;;;;;;;11.48;5.88;;;;;;;16.45;66.63;99277.53;5060064;28;20025;-74
2021/05/08 02:34:56;;;;;;;8.63;5.25;;;;;;;16.32;66.85;99255.38;5062525;28;20021;-74
2021/05/08 02:37:22;;;;;;;9.35;5.32;;;;;;;16.28;66.80;99277.16;5060614;28;20051;-68
2021/05/08 02:39:48;;;;;;;9.60;5.13;;;;;;;16.49;66.17;99269.91;5060319;28;20052;-74
2021/05/08 02:42:13;;;;;;;10.20;5.40;;;;;;;16.42;66.52;99274.44;5061631;28;20032;-67
2021/05/08 02:44:38;;;;;;;8.23;5.07;;;;;;;16.45;66.36;99279.38;5060571;28;20029;-74
2021/05/08 02:47:04;;;;;;;14.68;4.63;;;;;;;16.50;66.06;99260.84;5061561;28;20040;-74
2021/05/08 02:49:29;;;;;;;6.85;4.53;;;;;;;16.69;65.88;99270.69;5063913;28;20028;-74
2021/05/08 02:51:55;;;;;;;12.00;4.82;;;;;;;16.84;64.70;99278.44;5062077;28;20041;-74
2021/05/08 02:54:20;;;;;;;11.02;4.72;;;;;;;17.07;63.87;99281.38;5064597;28;20029;-67
2021/05/08 02:56:46;;;;;;;13.38;5.40;;;;;;;17.14;63.22;99286.69;5062644;28;20031;-75
2021/05/08 02:59:11;;;;;;;10.18;5.05;;;;;;;17.15;63.44;99285.66;5061156;28;20035;-68
2021/05/08 03:01:36;;;;;;;13.70;4.70;;;;;;;17.26;63.00;99297.53;5059916;28;20318;-67
2021/05/08 03:04:02;;;;;;;9.68;5.20;;;;;;;17.31;62.10;99284.31;5061332;28;20370;-67
2021/05/08 03:06:27;;;;;;;11.00;4.47;;;;;;;17.37;61.75;99294.16;5059657;28;20037;-74
2021/05/08 03:08:53;;;;;;;8.57;4.85;;;;;;;17.37;61.74;99302.19;5070286;28;20028;-75
2021/05/08 03:11:18;;;;;;;9.75;4.20;;;;;;;17.48;61.29;99329.06;5061428;28;20037;-67
2021/05/08 03:13:44;;;;;;;9.27;3.97;;;;;;;17.48;60.79;99336.28;5063822;28;20037;-67
2021/05/08 03:16:09;;;;;;;13.15;5.80;;;;;;;17.27;61.45;99342.81;5061488;28;20025;-77
2021/05/08 03:18:35;;;;;;;12.02;5.05;;;;;;;17.04;62.87;99339.84;5059364;28;20028;-70
2021/05/08 03:21:00;;;;;;;10.68;5.10;;;;;;;17.10;63.30;99361.22;5060628;28;20041;-70
2021/05/08 03:23:26;;;;;;;11.73;4.68;;;;;;;17.22;62.69;99383.59;5059932;28;20029;-77
2021/05/08 03:25:51;;;;;;;9.30;4.35;;;;;;;17.21;62.42;99387.28;5060912;28;20021;-67
2021/05/08 03:28:17;;;;;;;6.72;4.55;;;;;;;17.29;62.58;99396.94;5059756;28;20223;-67
2021/05/08 03:30:42;;;;;;;8.70;4.13;;;;;;;17.41;61.72;99399.75;5059747;28;20092;-67
2021/05/08 03:33:08;;;;;;;18.45;4.90;;;;;;;17.38;62.01;99411.69;5060430;28;20033;-77
2021/05/08 03:35:35;;;;;;;8.40;4.65;;;;;;;17.17;63.84;99410.16;5059492;28;20421;-77
2021/05/08 03:38:00;;;;;;;6.35;4.38;;;;;;;17.06;64.41;99415.34;5060978;28;20108;-69
2021/05/08 03:40:25;;;;;;;10.70;4.55;;;;;;;17.16;64.11;99421.91;5058212;28;20056;-69
2021/05/08 03:42:51;;;;;;;8.48;4.40;;;;;;;17.22;63.76;99423.72;5060097;28;20118;-70
2021/05/08 03:45:17;;;;;;;7.68;4.47;;;;;;;17.28;63.46;99429.25;5060516;28;20039;-76
2021/05/08 03:47:42;;;;;;;9.35;4.20;;;;;;;17.42;63.15;99439.69;5059593;28;20048;-70
2021/05/08 03:50:08;;;;;;;12.02;3.47;;;;;;;17.39;62.12;99450.00;5060393;28;20427;-67
2021/05/08 03:52:33;;;;;;;5.90;3.50;;;;;;;17.46;60.48;99461.50;5059642;28;20334;-74
2021/05/08 03:55:00;;;;;;;11.95;4.18;;;;;;;17.73;59.08;99468.41;5059220;28;20037;-72
2021/05/08 03:57:25;;;;;;;10.60;4.00;;;;;;;17.68;58.37;99470.06;5059899;28;20072;-74
2021/05/08 03:59:51;;;;;;;10.30;4.53;;;;;;;17.80;57.96;99476.41;5057976;28;20032;-74
2021/05/08 04:02:16;;;;;;;10.27;3.85;;;;;;;17.81;57.61;99484.22;5059481;28;20060;-75
2021/05/08 04:04:42;;;;;;;32.50;5.03;;;;;;;17.89;56.85;99485.00;5060019;28;20067;-73
2021/05/08 04:07:07;;;;;;;80.22;8.35;;;;;;;17.86;56.19;99489.75;5070306;28;20033;-74
2021/05/08 04:09:32;;;;;;;22.15;5.13;;;;;;;17.83;56.31;99478.66;5060113;28;20322;-67
2021/05/08 04:11:58;;;;;;;31.13;5.30;;;;;;;17.82;56.06;99487.72;5058811;28;20211;-67
2021/05/08 04:14:23;;;;;;;18.75;4.90;;;;;;;17.85;55.55;99495.31;5059904;28;20100;-74
2021/05/08 04:16:49;;;;;;;42.95;6.72;;;;;;;17.86;55.62;99500.47;5062491;28;20048;-74
2021/05/08 04:19:14;;;;;;;18.50;5.40;;;;;;;17.94;55.48;99496.72;5059825;28;20096;-68
2021/05/08 04:21:40;;;;;;;23.75;6.22;;;;;;;17.98;55.50;99505.97;5058740;28;20033;-67
2021/05/08 04:24:06;;;;;;;29.83;7.28;;;;;;;17.96;55.49;99508.03;5058940;28;20218;-67
2021/05/08 04:26:31;;;;;;;25.98;6.80;;;;;;;18.11;55.44;99513.09;5058819;28;20025;-67
2021/05/08 04:28:57;;;;;;;44.00;7.55;;;;;;;18.01;55.63;99521.59;5058350;28;20268;-67
2021/05/08 04:31:22;;;;;;;216.05;19.50;;;;;;;17.88;55.52;99510.13;5059298;28;20311;-74
2021/05/08 04:33:48;;;;;;;39.10;8.23;;;;;;;17.90;55.44;99522.28;5058534;28;20096;-74
2021/05/08 04:36:13;;;;;;;44.55;9.02;;;;;;;17.89;55.26;99525.19;5059084;28;20032;-68
2021/05/08 04:38:40;;;;;;;21.00;8.18;;;;;;;18.04;55.22;99526.53;5058272;28;20110;-67
2021/05/08 04:41:06;;;;;;;37.55;8.27;;;;;;;18.14;54.15;99539.44;5058445;28;20035;-74
2021/05/08 04:43:31;;;;;;;24.40;7.40;;;;;;;18.12;53.71;99525.44;5059045;28;20035;-67
2021/05/08 04:45:57;;;;;;;48.17;8.88;;;;;;;18.06;54.01;99539.72;5061824;28;20048;-67
2021/05/08 04:48:24;;;;;;;20.23;8.55;;;;;;;18.12;54.45;99537.00;5060301;28;20262;-67
2021/05/08 04:50:51;;;;;;;47.20;9.15;;;;;;;18.05;53.82;99546.09;5068621;28;20039;-67
2021/05/08 04:53:16;;;;;;;26.52;7.28;;;;;;;18.02;53.82;99544.69;5062002;28;20358;-67
2021/05/08 04:55:42;;;;;;;21.25;7.00;;;;;;;18.08;53.90;99561.75;5061789;28;20017;-74
2021/05/08 04:58:07;;;;;;;17.15;7.35;;;;;;;18.21;53.63;99566.19;5058334;28;20028;-74
2021/05/08 05:00:33;;;;;;;27.42;6.97;;;;;;;18.18;53.20;99583.53;5058788;28;20092;-67
2021/05/08 05:02:59;;;;;;;29.42;7.88;;;;;;;18.29;53.15;99585.53;5058078;28;20053;-67
2021/05/08 05:05:24;;;;;;;19.05;7.72;;;;;;;18.28;52.85;99589.25;5063656;28;20049;-68
2021/05/08 05:07:50;;;;;;;47.67;9.55;;;;;;;18.37;52.46;99589.81;5057971;28;20056;-74
2021/05/08 05:10:15;;;;;;;26.10;6.63;;;;;;;18.38;52.54;99580.72;5056642;28;20087;-74
2021/05/08 05:12:41;;;;;;;33.35;7.55;;;;;;;18.37;52.41;99587.13;5062325;28;20032;-75
2021/05/08 05:15:08;;;;;;;23.20;7.30;;;;;;;18.44;52.27;99601.31;5058417;28;20021;-67
2021/05/08 05:17:34;;;;;;;32.00;7.07;;;;;;;18.41;52.08;99591.03;5059041;28;20028;-67
2021/05/08 05:19:59;;;;;;;14.00;6.68;;;;;;;18.46;52.06;99608.09;5060756;28;20047;-67
2021/05/08 05:22:25;;;;;;;21.27;7.38;;;;;;;18.50;51.90;99597.75;5062015;28;20032;-74
2021/05/08 05:24:51;;;;;;;43.60;9.02;;;;;;;18.52;51.46;99606.41;5062327;28;20289;-75
2021/05/08 05:27:17;;;;;;;59.60;9.63;;;;;;;18.51;51.25;99610.94;5061894;28;20106;-74
2021/05/08 05:29:43;;;;;;;32.75;7.45;;;;;;;18.48;51.29;99613.25;5062354;28;20037;-68
2021/05/08 05:32:08;;;;;;;26.27;7.10;;;;;;;18.55;50.84;99613.19;5061669;28;20049;-74
2021/05/08 05:34:34;;;;;;;19.58;6.68;;;;;;;18.71;50.93;99620.75;5058585;28;20072;-67
2021/05/08 05:36:59;;;;;;;20.65;6.80;;;;;;;18.68;50.68;99639.97;5057272;28;20037;-67
2021/05/08 05:39:25;;;;;;;29.13;7.95;;;;;;;18.68;50.97;99640.78;5058415;28;20028;-74
2021/05/08 05:41:50;;;;;;;85.88;11.23;;;;;;;18.59;50.30;99644.72;5057497;28;20029;-67
2021/05/08 05:44:16;;;;;;;41.60;7.65;;;;;;;18.73;50.36;99646.34;5058750;28;20027;-68
2021/05/08 05:46:41;;;;;;;18.10;6.68;;;;;;;18.75;50.47;99655.00;5057606;28;20100;-74
2021/05/08 05:49:06;;;;;;;18.60;6.07;;;;;;;18.84;50.09;99665.47;5065291;28;20021;-67
2021/05/08 05:51:32;;;;;;;21.17;6.45;;;;;;;18.92;49.73;99665.19;5058436;28;20085;-67
2021/05/08 05:53:57;;;;;;;33.33;7.13;;;;;;;19.09;49.10;99660.94;5056849;28;20361;-67
2021/05/08 05:56:26;;;;;;;25.52;6.57;;;;;;;19.30;48.87;99659.72;5057968;28;20043;-67
2021/05/08 05:58:52;;;;;;;28.08;6.43;;;;;;;19.38;48.39;99660.25;5057701;28;20064;-75
2021/05/08 06:01:18;;;;;;;25.95;6.30;;;;;;;19.30;48.38;99655.16;5056003;28;20032;-74
2021/05/08 06:03:43;;;;;;;20.85;5.43;;;;;;;19.57;48.06;99674.56;5058965;28;20082;-68
2021/05/08 06:06:09;;;;;;;43.20;6.68;;;;;;;19.73;46.96;99655.16;5060785;28;20044;-73
2021/05/08 06:08:35;;;;;;;54.13;7.63;;;;;;;19.76;46.85;99673.53;5059901;28;20044;-74
2021/05/08 06:11:01;;;;;;;29.48;6.50;;;;;;;19.68;47.00;99667.63;5058889;28;20060;-68
2021/05/08 06:13:31;;;;;;;31.77;5.97;;;;;;;19.80;46.89;99679.31;5062323;28;20249;-67
2021/05/08 06:15:56;;;;;;;10.23;4.38;;;;;;;20.12;46.95;99677.28;5058295;28;20040;-67
2021/05/08 06:18:22;;;;;;;60.90;7.72;;;;;;;19.84;47.35;99677.81;5061779;28;20029;-74
2021/05/08 06:20:47;;;;;;;45.55;6.60;;;;;;;19.81;47.11;99672.06;5061560;28;20036;-75
2021/05/08 06:23:13;;;;;;;33.17;5.40;;;;;;;19.51;47.71;99666.53;5061874;28;20033;-67
2021/05/08 06:25:38;;;;;;;33.47;6.38;;;;;;;19.81;47.82;99664.00;5060947;28;20029;-75
2021/05/08 06:28:04;;;;;;;17.48;5.25;;;;;;;20.01;47.09;99667.28;5061907;28;20037;-75
2021/05/08 06:30:29;;;;;;;12.93;4.78;;;;;;;19.98;47.07;99657.81;5061802;28;20029;-74
2021/05/08 06:32:54;;;;;;;23.67;5.03;;;;;;;20.28;45.74;99667.78;5061079;28;20214;-67
2021/05/08 06:35:20;;;;;;;23.13;4.47;;;;;;;20.51;45.07;99667.91;5061584;28;20239;-67
2021/05/08 06:37:49;;;;;;;37.30;5.80;;;;;;;20.64;44.45;99664.19;5061014;28;20045;-74
2021/05/08 06:40:15;;;;;;;28.67;4.63;;;;;;;20.66;44.13;99670.16;5061269;28;20037;-75
2021/05/08 06:42:40;;;;;;;29.58;5.35;;;;;;;20.56;44.08;99673.41;5061259;28;20033;-74
2021/05/08 06:45:06;;;;;;;21.25;4.40;;;;;;;20.41;44.20;99664.94;5061665;28;20021;-74
2021/05/08 06:47:31;;;;;;;19.15;4.70;;;;;;;20.44;43.95;99666.34;5062521;28;20032;-67
2021/05/08 06:49:57;;;;;;;28.75;4.55;;;;;;;20.51;43.67;99672.47;5065114;28;20233;-67
2021/05/08 06:52:22;;;;;;;30.20;4.22;;;;;;;20.59;43.34;99674.81;5064754;28;20041;-74
2021/05/08 06:54:48;;;;;;;17.65;4.10;;;;;;;20.54;44.04;99678.19;5064746;28;20036;-75
2021/05/08 06:57:13;;;;;;;29.30;4.45;;;;;;;20.57;43.45;99685.81;5063453;28;20232;-74
2021/05/08 06:59:39;;;;;;;16.85;3.55;;;;;;;20.46;43.43;99691.97;5065092;28;20028;-67
2021/05/08 07:02:04;;;;;;;12.93;3.80;;;;;;;20.39;43.81;99693.94;5064562;28;20037;-74
2021/05/08 07:04:31;;;;;;;28.15;4.90;;;;;;;20.05;43.17;99661.22;5064590;28;20024;-74
2021/05/08 07:06:56;;;;;;;43.33;5.32;;;;;;;19.88;43.19;99692.44;5064360;28;20041;-74
2021/05/08 07:09:22;;;;;;;40.70;5.45;;;;;;;19.81;43.15;99699.75;5065023;28;20211;-74
2021/05/08 07:11:47;;;;;;;43.35;5.50;;;;;;;19.60;43.52;99706.34;5063942;28;20052;-67
2021/05/08 07:14:13;;;;;;;19.95;4.45;;;;;;;19.57;43.80;99703.28;5064577;28;20033;-67
2021/05/08 07:16:38;;;;;;;20.90;3.97;;;;;;;19.52;43.46;99703.09;5064363;28;20025;-74
2021/05/08 07:19:04;;;;;;;20.08;4.22;;;;;;;19.74;44.16;99718.59;5062993;28;20037;-74
2021/05/08 07:21:29;;;;;;;27.20;4.18;;;;;;;19.59;44.06;99717.31;5064167;28;20020;-74
2021/05/08 07:23:55;;;;;;;24.67;3.97;;;;;;;19.65;44.59;99717.25;5064620;28;20029;-67
2021/05/08 07:26:20;;;;;;;19.33;4.35;;;;;;;19.67;44.68;99717.03;5063751;28;20033;-74
2021/05/08 07:28:46;;;;;;;18.42;4.07;;;;;;;19.70;43.92;99714.72;5064799;28;20150;-68
2021/05/08 07:31:11;;;;;;;13.50;3.45;;;;;;;19.99;43.95;99736.56;5064359;28;20040;-74
2021/05/08 07:33:37;;;;;;;29.88;4.20;;;;;;;19.68;43.46;99694.50;5064286;28;20036;-74
2021/05/08 07:36:02;;;;;;;32.25;4.75;;;;;;;19.88;43.31;99718.50;5063764;28;20064;-68
2021/05/08 07:38:28;;;;;;;33.58;5.43;;;;;;;19.88;43.16;99724.69;5064437;28;20029;-67
2021/05/08 07:40:54;;;;;;;23.65;5.30;;;;;;;19.91;42.81;99739.53;5063520;28;20037;-67
2021/05/08 07:43:21;;;;;;;42.15;5.60;;;;;;;20.15;42.44;99735.16;5064419;28;20079;-67
2021/05/08 07:45:47;;;;;;;40.67;6.10;;;;;;;20.46;42.10;99740.38;5064067;28;20056;-74
2021/05/08 07:48:13;;;;;;;22.02;4.80;;;;;;;20.89;41.74;99748.31;5064062;28;20067;-77
2021/05/08 07:50:39;;;;;;;32.38;5.07;;;;;;;21.17;41.32;99757.63;5063636;28;20032;-70
2021/05/08 07:53:05;;;;;;;23.73;5.05;;;;;;;21.32;41.21;99766.13;5064374;28;20028;-77
2021/05/08 07:55:31;;;;;;;23.58;4.55;;;;;;;21.42;40.88;99771.78;5063502;28;20223;-70
2021/05/08 07:57:56;;;;;;;27.08;4.85;;;;;;;21.78;40.61;99775.31;5063515;28;20364;-70
2021/05/08 08:00:22;;;;;;;16.80;4.50;;;;;;;22.37;39.97;99776.94;5063454;28;20033;-77
2021/05/08 08:02:51;;;;;;;21.05;5.32;;;;;;;22.61;39.45;99770.44;5063057;28;20025;-78
2021/05/08 08:05:17;;;;;;;25.88;5.10;;;;;;;22.77;38.28;99771.53;5066687;28;20052;-77
2021/05/08 08:07:43;;;;;;;29.00;4.88;;;;;;;22.46;38.44;99764.72;5063448;28;20037;-71
2021/05/08 08:10:09;;;;;;;14.73;4.43;;;;;;;22.27;39.17;99777.56;5063327;28;20040;-71
2021/05/08 08:12:37;;;;;;;15.10;4.15;;;;;;;22.52;38.76;99782.66;5063495;28;20376;-77
2021/05/08 08:15:03;;;;;;;14.07;5.18;;;;;;;23.17;38.22;99784.22;5063594;28;20250;-77
2021/05/08 08:17:29;;;;;;;22.52;4.72;;;;;;;23.39;37.46;99781.63;5063070;28;20040;-70
2021/05/08 08:19:55;;;;;;;12.07;5.45;;;;;;;22.38;38.88;99783.16;5063356;28;20096;-77
2021/05/08 08:22:20;;;;;;;37.97;6.30;;;;;;;22.34;38.31;99757.72;5063221;28;20051;-70
2021/05/08 08:24:46;;;;;;;20.05;5.38;;;;;;;23.22;37.43;99790.53;5062966;28;20037;-70
2021/05/08 08:27:11;;;;;;;18.35;4.72;;;;;;;23.39;36.04;99781.63;5063084;28;20025;-72
2021/05/08 08:29:37;;;;;;;27.65;5.15;;;;;;;23.29;35.25;99787.66;5063411;28;20040;-70
2021/05/08 08:32:03;;;;;;;12.50;5.13;;;;;;;22.92;37.09;99796.19;5062784;28;20028;-77
2021/05/08 08:34:29;;;;;;;18.45;5.68;;;;;;;22.75;37.95;99800.66;5062890;28;20255;-77
2021/05/08 08:36:54;;;;;;;23.20;6.35;;;;;;;22.30;38.16;99806.75;5060842;28;20043;-70
2021/05/08 08:39:20;;;;;;;25.20;7.18;;;;;;;21.44;39.57;99807.38;5063092;28;20052;-77
2021/05/08 08:41:45;;;;;;;11.68;5.38;;;;;;;21.12;39.94;99801.41;5059450;28;20036;-77
2021/05/08 08:44:11;;;;;;;18.88;4.45;;;;;;;20.89;41.05;99790.56;5062973;28;20278;-77
2021/05/08 08:46:41;;;;;;;13.23;5.80;;;;;;;20.80;41.14;99795.41;5062413;28;20029;-70
2021/05/08 08:49:07;;;;;;;11.75;4.43;;;;;;;21.00;41.05;99806.75;5062524;28;20033;-71
2021/05/08 08:51:33;;;;;;;15.63;4.78;;;;;;;21.25;40.21;99798.56;5061332;28;20041;-70
2021/05/08 08:53:59;;;;;;;11.40;4.95;;;;;;;21.28;39.61;99773.84;5062704;28;20043;-70
2021/05/08 08:56:28;;;;;;;14.55;5.07;;;;;;;21.26;39.95;99788.59;5062424;28;20302;-70
2021/05/08 08:59:01;;;;;;;10.63;4.43;;;;;;;21.44;40.55;99793.91;5062501;28;20040;-70
2021/05/08 09:01:27;;;;;;;9.52;4.60;;;;;;;21.60;39.79;99789.72;5062527;28;20315;-77
2021/05/08 09:03:52;;;;;;;12.40;4.50;;;;;;;22.27;39.16;99782.94;5062512;28;20086;-77
2021/05/08 09:06:22;;;;;;;10.23;4.32;;;;;;;22.67;38.19;99789.41;5061038;28;20287;-71
2021/05/08 09:08:51;;;;;;;16.13;4.60;;;;;;;22.43;38.72;99794.06;5062849;28;20037;-71
2021/05/08 09:11:23;;;;;;;13.50;5.05;;;;;;;22.24;39.01;99780.72;5061316;28;20105;-77
2021/05/08 09:14:09;;;;;;;9.60;4.03;;;;;;;22.32;38.25;99786.81;5062821;28;20033;-77
2021/05/08 09:16:35;;;;;;;9.70;5.15;;;;;;;22.22;38.05;99782.84;5062179;28;20300;-77
2021/05/08 09:19:18;;;;;;;7.78;4.28;;;;;;;22.18;38.15;99780.84;5062074;28;20044;-77
2021/05/08 09:21:43;;;;;;;12.45;4.28;;;;;;;22.04;38.45;99776.78;5058454;28;20026;-70
2021/05/08 09:24:09;;;;;;;7.63;4.13;;;;;;;21.89;38.80;99778.03;5062102;28;20060;-77
2021/05/08 09:26:38;;;;;;;18.67;4.57;;;;;;;22.25;38.56;99795.84;5061201;28;20025;-70
2021/05/08 09:29:17;;;;;;;9.10;4.28;;;;;;;22.19;38.71;99799.50;5060283;28;20416;-77
2021/05/08 09:31:55;;;;;;;14.57;5.18;;;;;;;22.38;37.96;99783.97;5061913;28;20028;-70
2021/05/08 09:34:21;;;;;;;11.05;4.47;;;;;;;22.50;38.38;99786.66;5062208;28;20091;-70
2021/05/08 09:36:53;;;;;;;15.02;4.82;;;;;;;22.34;37.77;99782.00;5061855;28;20255;-70
2021/05/08 09:39:28;;;;;;;12.75;4.88;;;;;;;22.19;38.21;99790.59;5062032;28;20036;-77
2021/05/08 09:41:53;;;;;;;15.18;4.50;;;;;;;21.95;37.68;99782.50;5061698;28;20041;-74
2021/05/08 09:44:19;;;;;;;12.02;4.68;;;;;;;21.75;38.45;99789.25;5062562;28;20045;-77
2021/05/08 09:46:44;;;;;;;7.55;4.32;;;;;;;21.41;38.96;99798.94;5061817;28;20033;-77
2021/05/08 09:49:11;;;;;;;6.78;4.30;;;;;;;21.23;39.62;99786.38;5061843;28;20043;-76
2021/05/08 09:51:36;;;;;;;6.95;4.15;;;;;;;21.40;38.96;99781.94;5061689;28;20184;-77
2021/05/08 09:54:20;;;;;;;10.32;4.40;;;;;;;21.26;38.95;99797.50;5062002;28;20064;-76
2021/05/08 09:56:47;;;;;;;18.23;4.70;;;;;;;21.07;39.50;99787.00;5061674;28;20323;-70
2021/05/08 09:59:38;;;;;;;10.77;4.45;;;;;;;20.95;40.30;99795.84;5061863;28;20056;-77
2021/05/08 10:02:03;;;;;;;6.97;4.07;;;;;;;21.11;40.12;99797.06;5061783;28;20039;-76
2021/05/08 10:04:34;;;;;;;9.25;4.03;;;;;;;20.84;40.17;99798.50;5061708;28;20088;-70
2021/05/08 10:07:10;;;;;;;9.48;3.97;;;;;;;20.97;41.00;99795.63;5061619;28;20060;-70
2021/05/08 10:09:37;;;;;;;18.08;4.25;;;;;;;20.85;39.81;99778.59;5058995;28;20045;-70
2021/05/08 10:12:05;;;;;;;12.80;4.35;;;;;;;20.78;40.83;99788.59;5061115;28;20060;-77
2021/05/08 10:14:32;;;;;;;8.57;4.07;;;;;;;20.85;40.89;99784.81;5061694;28;20033;-77
2021/05/08 10:16:58;;;;;;;9.38;3.65;;;;;;;21.10;40.56;99781.16;5060851;28;20029;-77
2021/05/08 10:19:27;;;;;;;8.75;4.00;;;;;;;21.00;41.03;99789.78;5061700;28;20321;-76
2021/05/08 10:21:54;;;;;;;5.78;3.97;;;;;;;20.91;40.52;99785.75;5061996;28;20044;-70
2021/05/08 10:24:22;;;;;;;4.65;3.58;;;;;;;20.78;41.22;99789.44;5065257;28;20131;-77
2021/05/08 10:26:49;;;;;;;4.40;3.10;;;;;;;20.42;41.05;99770.66;5065296;28;20099;-70
2021/05/08 10:29:14;;;;;;;7.28;3.45;;;;;;;20.53;40.96;99781.47;5065573;28;20048;-76
2021/05/08 10:31:40;;;;;;;5.50;3.40;;;;;;;20.64;41.04;99777.19;5064868;28;20033;-70
2021/05/08 10:34:06;;;;;;;13.05;3.95;;;;;;;20.90;41.03;99787.63;5064513;28;20213;-77
2021/05/08 10:36:45;;;;;;;11.80;3.78;;;;;;;21.02;39.75;99772.34;5064872;28;20345;-77
2021/05/08 10:39:11;;;;;;;6.60;3.60;;;;;;;21.06;40.36;99786.16;5060949;28;20037;-70
2021/05/08 10:41:50;;;;;;;6.53;3.45;;;;;;;21.41;39.95;99796.25;5064907;28;20028;-72
2021/05/08 10:44:46;;;;;;;12.70;3.50;;;;;;;21.83;38.89;99797.00;5061450;28;20036;-77
2021/05/08 10:47:15;;;;;;;6.55;3.17;;;;;;;21.78;39.11;99792.31;5064901;28;20056;-71
2021/05/08 10:49:41;;;;;;;12.98;3.50;;;;;;;21.85;38.73;99800.31;5065192;28;20033;-70
2021/05/08 10:52:07;;;;;;;17.48;3.75;;;;;;;21.77;38.35;99798.75;5064842;28;20039;-70
2021/05/08 10:54:39;;;;;;;10.98;2.90;;;;;;;21.84;38.87;99806.72;5065255;28;20025;-77
2021/05/08 10:57:16;;;;;;;7.10;3.20;;;;;;;21.58;38.95;99787.25;5064780;28;20092;-77
2021/05/08 11:00:09;;;;;;;11.95;3.67;;;;;;;21.67;39.07;99777.78;5063806;28;20032;-77
2021/05/08 11:02:41;;;;;;;13.52;3.67;;;;;;;21.81;38.72;99785.63;5064649;28;20033;-77
2021/05/08 11:05:28;;;;;;;7.93;3.60;;;;;;;22.08;39.17;99788.72;5064788;28;20263;-70
2021/05/08 11:07:54;;;;;;;9.13;3.70;;;;;;;22.02;38.13;99786.94;5064959;28;20092;-70
2021/05/08 11:10:32;;;;;;;7.20;2.92;;;;;;;22.24;37.77;99793.41;5064695;28;20044;-77
2021/05/08 11:13:14;;;;;;;14.63;3.72;;;;;;;22.05;37.75;99790.00;5057668;28;20338;-77
2021/05/08 11:15:53;;;;;;;6.80;3.35;;;;;;;21.98;38.16;99792.81;5064320;28;20021;-70
2021/05/08 11:18:38;;;;;;;5.65;3.28;;;;;;;21.97;38.54;99798.44;5062570;28;20025;-70
2021/05/08 11:21:18;;;;;;;6.53;3.42;;;;;;;22.03;38.47;99796.69;5061161;28;20363;-70
2021/05/08 11:24:06;;;;;;;3.60;2.80;;;;;;;21.97;38.17;99801.13;5061462;28;20025;-70
2021/05/08 11:26:36;;;;;;;9.10;3.13;;;;;;;21.88;37.94;99800.66;5060724;28;20020;-77